sensor_id;sensor_type;location;lat;lon;timestamp;temperature;humidity
46340;DHT22;47273;49.274;8.708;2022-12-18T05:03:01;-6.60;98.10
46340;DHT22;47273;49.274;8.708;2022-12-18T05:05:27;-6.60;98.00
46340;DHT22;47273;49.274;8.708;2022-12-18T05:07:53;-6.50;97.80
46340;DHT22;47273;49.274;8.708;2022-12-18T05:10:18;-6.60;97.80
46340;DHT22;47273;49.274;8.708;2022-12-18T05:12:44;-6.50;97.80
46340;DHT22;47273;49.274;8.708;2022-12-18T05:15:32;-6.50;97.90
46340;DHT22;47273;49.274;8.708;2022-12-18T05:17:58;-6.50;97.90
46340;DHT22;47273;49.274;8.708;2022-12-18T05:20:24;-6.50;98.00
46340;DHT22;47273;49.274;8.708;2022-12-18T05:22:51;-6.50;98.30
46340;DHT22;47273;49.274;8.708;2022-12-18T05:25:17;-6.50;98.40
46340;DHT22;47273;49.274;8.708;2022-12-18T05:27:43;-6.40;98.70
46340;DHT22;47273;49.274;8.708;2022-12-18T05:30:10;-6.40;98.60
46340;DHT22;47273;49.274;8.708;2022-12-18T05:32:36;-6.40;98.60
46340;DHT22;47273;49.274;8.708;2022-12-18T05:35:01;-6.30;99.10
46340;DHT22;47273;49.274;8.708;2022-12-18T05:37:27;-6.30;99.10
46340;DHT22;47273;49.274;8.708;2022-12-18T05:39:53;-6.40;99.20
46340;DHT22;47273;49.274;8.708;2022-12-18T05:42:18;-6.30;99.00
46340;DHT22;47273;49.274;8.708;2022-12-18T05:44:44;-6.40;99.00
46340;DHT22;47273;49.274;8.708;2022-12-18T05:47:10;-6.30;99.10
46340;DHT22;47273;49.274;8.708;2022-12-18T05:49:35;-6.30;99.00
46340;DHT22;47273;49.274;8.708;2022-12-18T05:52:01;-6.30;99.00
46340;DHT22;47273;49.274;8.708;2022-12-18T05:54:27;-6.20;98.80
46340;DHT22;47273;49.274;8.708;2022-12-18T05:56:53;-6.20;98.90
46340;DHT22;47273;49.274;8.708;2022-12-18T05:59:28;-6.10;99.00
46340;DHT22;47273;49.274;8.708;2022-12-18T06:01:54;-6.10;99.10
46340;DHT22;47273;49.274;8.708;2022-12-18T06:04:19;-6.00;99.10
46340;DHT22;47273;49.274;8.708;2022-12-18T06:06:45;-5.90;98.70
46340;DHT22;47273;49.274;8.708;2022-12-18T06:09:11;-5.90;98.80
46340;DHT22;47273;49.274;8.708;2022-12-18T06:11:38;-5.90;98.80
46340;DHT22;47273;49.274;8.708;2022-12-18T06:14:05;-5.80;98.60
46340;DHT22;47273;49.274;8.708;2022-12-18T06:16:31;-5.80;98.60
46340;DHT22;47273;49.274;8.708;2022-12-18T06:18:58;-5.80;98.70
46340;DHT22;47273;49.274;8.708;2022-12-18T06:21:23;-5.70;98.90
46340;DHT22;47273;49.274;8.708;2022-12-18T06:23:49;-5.70;98.90
46340;DHT22;47273;49.274;8.708;2022-12-18T06:26:15;-5.70;98.70
46340;DHT22;47273;49.274;8.708;2022-12-18T06:28:41;-5.60;98.60
46340;DHT22;47273;49.274;8.708;2022-12-18T06:31:07;-5.60;98.70
46340;DHT22;47273;49.274;8.708;2022-12-18T06:33:33;-5.60;98.90
46340;DHT22;47273;49.274;8.708;2022-12-18T06:36:01;-5.60;98.80
46340;DHT22;47273;49.274;8.708;2022-12-18T06:38:27;-5.60;98.70
46340;DHT22;47273;49.274;8.708;2022-12-18T06:40:53;-5.60;98.80
46340;DHT22;47273;49.274;8.708;2022-12-18T06:43:18;-5.60;98.60
46340;DHT22;47273;49.274;8.708;2022-12-18T06:45:44;-5.60;98.70
46340;DHT22;47273;49.274;8.708;2022-12-18T06:48:10;-5.70;98.60
46340;DHT22;47273;49.274;8.708;2022-12-18T06:50:35;-5.70;98.60
46340;DHT22;47273;49.274;8.708;2022-12-18T06:53:01;-5.70;98.60
46340;DHT22;47273;49.274;8.708;2022-12-18T06:55:26;-5.70;98.50
46340;DHT22;47273;49.274;8.708;2022-12-18T06:57:52;-5.70;98.50
46340;DHT22;47273;49.274;8.708;2022-12-18T07:00:18;-5.70;98.50
46340;DHT22;47273;49.274;8.708;2022-12-18T07:02:43;-5.70;98.40
46340;DHT22;47273;49.274;8.708;2022-12-18T07:05:09;-5.70;98.50
46340;DHT22;47273;49.274;8.708;2022-12-18T07:07:35;-5.70;98.40
46340;DHT22;47273;49.274;8.708;2022-12-18T07:10:01;-5.60;98.30
46340;DHT22;47273;49.274;8.708;2022-12-18T07:12:27;-5.60;98.60
46340;DHT22;47273;49.274;8.708;2022-12-18T07:14:52;-5.60;98.30
46340;DHT22;47273;49.274;8.708;2022-12-18T07:17:18;-5.60;98.40
46340;DHT22;47273;49.274;8.708;2022-12-18T07:19:44;-5.70;98.30
46340;DHT22;47273;49.274;8.708;2022-12-18T07:22:09;-5.60;98.30
46340;DHT22;47273;49.274;8.708;2022-12-18T07:24:35;-5.60;98.10
46340;DHT22;47273;49.274;8.708;2022-12-18T07:27:01;-5.60;98.00
46340;DHT22;47273;49.274;8.708;2022-12-18T07:29:26;-5.60;98.10
46340;DHT22;47273;49.274;8.708;2022-12-18T07:31:52;-5.60;98.10
46340;DHT22;47273;49.274;8.708;2022-12-18T07:34:18;-5.60;98.10
46340;DHT22;47273;49.274;8.708;2022-12-18T07:36:43;-5.60;98.00
46340;DHT22;47273;49.274;8.708;2022-12-18T07:39:10;-5.50;97.90
46340;DHT22;47273;49.274;8.708;2022-12-18T07:41:36;-5.60;97.90
46340;DHT22;47273;49.274;8.708;2022-12-18T07:44:02;-5.50;98.00
46340;DHT22;47273;49.274;8.708;2022-12-18T07:46:27;-5.50;98.00
46340;DHT22;47273;49.274;8.708;2022-12-18T07:48:53;-5.50;98.40
46340;DHT22;47273;49.274;8.708;2022-12-18T07:51:19;-5.40;98.30
46340;DHT22;47273;49.274;8.708;2022-12-18T07:53:44;-5.40;98.10
46340;DHT22;47273;49.274;8.708;2022-12-18T07:56:11;-5.40;98.20
46340;DHT22;47273;49.274;8.708;2022-12-18T07:58:47;-5.40;98.00
46340;DHT22;47273;49.274;8.708;2022-12-18T08:01:13;-5.40;98.00
46340;DHT22;47273;49.274;8.708;2022-12-18T08:03:40;-5.40;98.00
46340;DHT22;47273;49.274;8.708;2022-12-18T08:06:07;-5.40;97.90
46340;DHT22;47273;49.274;8.708;2022-12-18T08:08:34;-5.40;98.00
46340;DHT22;47273;49.274;8.708;2022-12-18T08:11:01;-5.40;97.90
46340;DHT22;47273;49.274;8.708;2022-12-18T08:13:27;-5.40;97.90
46340;DHT22;47273;49.274;8.708;2022-12-18T08:16:00;-5.40;97.90
46340;DHT22;47273;49.274;8.708;2022-12-18T08:18:27;-5.40;98.00
46340;DHT22;47273;49.274;8.708;2022-12-18T08:20:52;-5.40;98.10
46340;DHT22;47273;49.274;8.708;2022-12-18T08:23:18;-5.30;97.90
46340;DHT22;47273;49.274;8.708;2022-12-18T08:25:45;-5.20;97.90
46340;DHT22;47273;49.274;8.708;2022-12-18T08:28:11;-5.20;97.90
46340;DHT22;47273;49.274;8.708;2022-12-18T08:30:37;-5.20;97.80
46340;DHT22;47273;49.274;8.708;2022-12-18T08:33:02;-5.20;97.90
46340;DHT22;47273;49.274;8.708;2022-12-18T08:35:28;-5.20;97.80
46340;DHT22;47273;49.274;8.708;2022-12-18T08:37:54;-5.10;98.00
46340;DHT22;47273;49.274;8.708;2022-12-18T08:40:19;-5.10;98.10
46340;DHT22;47273;49.274;8.708;2022-12-18T08:42:45;-5.10;98.20
46340;DHT22;47273;49.274;8.708;2022-12-18T08:45:29;-5.00;98.50
46340;DHT22;47273;49.274;8.708;2022-12-18T08:47:55;-4.90;98.10
46340;DHT22;47273;49.274;8.708;2022-12-18T08:50:20;-4.90;97.90
46340;DHT22;47273;49.274;8.708;2022-12-18T08:52:46;-4.80;97.90
46340;DHT22;47273;49.274;8.708;2022-12-18T08:55:12;-4.80;97.80
46340;DHT22;47273;49.274;8.708;2022-12-18T08:57:37;-4.70;97.60
46340;DHT22;47273;49.274;8.708;2022-12-18T09:00:04;-4.70;97.70
46340;DHT22;47273;49.274;8.708;2022-12-18T09:02:30;-4.60;97.60
46340;DHT22;47273;49.274;8.708;2022-12-18T09:04:55;-4.60;97.70
46340;DHT22;47273;49.274;8.708;2022-12-18T09:07:21;-4.50;97.60
46340;DHT22;47273;49.274;8.708;2022-12-18T09:09:47;-4.50;97.40
46340;DHT22;47273;49.274;8.708;2022-12-18T09:12:12;-4.40;97.40
46340;DHT22;47273;49.274;8.708;2022-12-18T09:14:38;-4.30;97.30
46340;DHT22;47273;49.274;8.708;2022-12-18T09:17:03;-4.30;97.20
46340;DHT22;47273;49.274;8.708;2022-12-18T09:19:29;-4.20;97.40
46340;DHT22;47273;49.274;8.708;2022-12-18T09:21:55;-4.20;97.20
46340;DHT22;47273;49.274;8.708;2022-12-18T09:24:20;-4.10;97.10
46340;DHT22;47273;49.274;8.708;2022-12-18T09:26:46;-4.10;97.20
46340;DHT22;47273;49.274;8.708;2022-12-18T09:29:12;-4.00;97.20
46340;DHT22;47273;49.274;8.708;2022-12-18T09:31:38;-3.90;97.30
46340;DHT22;47273;49.274;8.708;2022-12-18T09:34:04;-3.90;97.30
46340;DHT22;47273;49.274;8.708;2022-12-18T09:36:29;-3.80;97.20
46340;DHT22;47273;49.274;8.708;2022-12-18T09:38:55;-3.70;97.30
46340;DHT22;47273;49.274;8.708;2022-12-18T09:41:54;-3.70;97.20
46340;DHT22;47273;49.274;8.708;2022-12-18T09:44:30;-3.60;97.20
46340;DHT22;47273;49.274;8.708;2022-12-18T09:47:18;-3.50;97.20
46340;DHT22;47273;49.274;8.708;2022-12-18T09:49:48;-3.40;97.00
46340;DHT22;47273;49.274;8.708;2022-12-18T09:52:30;-3.30;97.00
46340;DHT22;47273;49.274;8.708;2022-12-18T09:55:13;-3.30;96.90
46340;DHT22;47273;49.274;8.708;2022-12-18T09:57:47;-3.10;96.80
46340;DHT22;47273;49.274;8.708;2022-12-18T10:00:20;-3.10;96.80
46340;DHT22;47273;49.274;8.708;2022-12-18T10:02:46;-3.00;96.70
46340;DHT22;47273;49.274;8.708;2022-12-18T10:08:09;-2.80;96.60
46340;DHT22;47273;49.274;8.708;2022-12-18T10:13:36;-2.60;96.60
46340;DHT22;47273;49.274;8.708;2022-12-18T10:16:17;-2.40;96.40
46340;DHT22;47273;49.274;8.708;2022-12-18T10:19:02;-2.30;96.20
46340;DHT22;47273;49.274;8.708;2022-12-18T10:27:33;-2.20;95.80
46340;DHT22;47273;49.274;8.708;2022-12-18T10:30:04;-2.10;95.80
46340;DHT22;47273;49.274;8.708;2022-12-18T10:32:30;-2.00;95.80
46340;DHT22;47273;49.274;8.708;2022-12-18T10:34:57;-1.90;95.70
46340;DHT22;47273;49.274;8.708;2022-12-18T10:37:25;-1.90;95.50
46340;DHT22;47273;49.274;8.708;2022-12-18T10:40:10;-1.90;95.80
46340;DHT22;47273;49.274;8.708;2022-12-18T10:42:36;-1.80;95.70
46340;DHT22;47273;49.274;8.708;2022-12-18T10:45:11;-1.70;95.50
46340;DHT22;47273;49.274;8.708;2022-12-18T10:47:42;-1.60;95.40
46340;DHT22;47273;49.274;8.708;2022-12-18T10:50:19;-1.50;95.20
46340;DHT22;47273;49.274;8.708;2022-12-18T10:53:03;-1.50;95.40
46340;DHT22;47273;49.274;8.708;2022-12-18T10:55:37;-1.30;95.30
46340;DHT22;47273;49.274;8.708;2022-12-18T10:58:29;-1.30;95.20
46340;DHT22;47273;49.274;8.708;2022-12-18T11:03:45;-1.20;94.90
46340;DHT22;47273;49.274;8.708;2022-12-18T11:06:19;-1.10;95.10
46340;DHT22;47273;49.274;8.708;2022-12-18T11:09:19;-1.10;94.90
46340;DHT22;47273;49.274;8.708;2022-12-18T11:11:56;-0.90;95.00
46340;DHT22;47273;49.274;8.708;2022-12-18T11:19:44;-0.50;94.70
46340;DHT22;47273;49.274;8.708;2022-12-18T11:22:23;-0.40;94.50
46340;DHT22;47273;49.274;8.708;2022-12-18T11:27:52;-0.20;94.10
46340;DHT22;47273;49.274;8.708;2022-12-18T11:30:25;-0.10;94.00
46340;DHT22;47273;49.274;8.708;2022-12-18T11:33:21;0.00;94.00
46340;DHT22;47273;49.274;8.708;2022-12-18T11:35:54;0.10;93.80
46340;DHT22;47273;49.274;8.708;2022-12-18T11:38:27;0.20;93.70
46340;DHT22;47273;49.274;8.708;2022-12-18T11:43:34;0.30;93.60
46340;DHT22;47273;49.274;8.708;2022-12-18T11:46:17;0.40;93.40
46340;DHT22;47273;49.274;8.708;2022-12-18T11:48:54;0.50;93.40
46340;DHT22;47273;49.274;8.708;2022-12-18T11:51:33;0.60;93.20
46340;DHT22;47273;49.274;8.708;2022-12-18T11:54:01;0.60;93.20
46340;DHT22;47273;49.274;8.708;2022-12-18T11:56:35;0.70;93.10
46340;DHT22;47273;49.274;8.708;2022-12-18T12:01:52;0.80;93.00
46340;DHT22;47273;49.274;8.708;2022-12-18T12:07:29;0.80;92.80
46340;DHT22;47273;49.274;8.708;2022-12-18T12:10:25;0.80;92.60
46340;DHT22;47273;49.274;8.708;2022-12-18T12:13:28;0.90;92.70
46340;DHT22;47273;49.274;8.708;2022-12-18T12:20:57;0.90;92.50
46340;DHT22;47273;49.274;8.708;2022-12-18T12:26:06;0.90;92.80
46340;DHT22;47273;49.274;8.708;2022-12-18T12:29:34;0.90;92.30
46340;DHT22;47273;49.274;8.708;2022-12-18T12:34:19;0.90;92.70
46340;DHT22;47273;49.274;8.708;2022-12-18T12:39:37;1.00;92.50
46340;DHT22;47273;49.274;8.708;2022-12-18T12:42:08;1.00;92.40
46340;DHT22;47273;49.274;8.708;2022-12-18T12:44:55;1.00;92.30
46340;DHT22;47273;49.274;8.708;2022-12-18T12:47:35;1.00;92.60
46340;DHT22;47273;49.274;8.708;2022-12-18T12:50:04;1.10;92.50
46340;DHT22;47273;49.274;8.708;2022-12-18T12:52:39;1.20;92.40
46340;DHT22;47273;49.274;8.708;2022-12-18T12:55:13;1.20;92.00
46340;DHT22;47273;49.274;8.708;2022-12-18T13:00:56;1.40;92.10
46340;DHT22;47273;49.274;8.708;2022-12-18T13:05:58;1.60;91.50
46340;DHT22;47273;49.274;8.708;2022-12-18T13:08:30;1.60;91.00
46340;DHT22;47273;49.274;8.708;2022-12-18T13:10:59;1.60;91.50
46340;DHT22;47273;49.274;8.708;2022-12-18T13:13:52;1.60;91.10
46340;DHT22;47273;49.274;8.708;2022-12-18T13:16:20;1.70;91.40
46340;DHT22;47273;49.274;8.708;2022-12-18T13:18:54;1.60;91.20
46340;DHT22;47273;49.274;8.708;2022-12-18T13:21:31;1.60;91.40
46340;DHT22;47273;49.274;8.708;2022-12-18T13:24:21;1.50;91.20
46340;DHT22;47273;49.274;8.708;2022-12-18T13:26:48;1.50;91.30
46340;DHT22;47273;49.274;8.708;2022-12-18T13:29:41;1.40;91.30
46340;DHT22;47273;49.274;8.708;2022-12-18T13:32:20;1.30;91.40
46340;DHT22;47273;49.274;8.708;2022-12-18T13:34:46;1.30;91.60
46340;DHT22;47273;49.274;8.708;2022-12-18T13:39:56;1.20;91.80
46340;DHT22;47273;49.274;8.708;2022-12-18T13:42:37;1.10;91.80
46340;DHT22;47273;49.274;8.708;2022-12-18T13:45:43;1.00;91.80
46340;DHT22;47273;49.274;8.708;2022-12-18T13:48:21;1.00;91.80
46340;DHT22;47273;49.274;8.708;2022-12-18T13:51:07;1.00;92.00
46340;DHT22;47273;49.274;8.708;2022-12-18T13:53:52;0.90;91.90
46340;DHT22;47273;49.274;8.708;2022-12-18T13:56:23;0.80;92.00
46340;DHT22;47273;49.274;8.708;2022-12-18T14:06:46;0.70;92.30
46340;DHT22;47273;49.274;8.708;2022-12-18T14:09:18;0.60;92.30
46340;DHT22;47273;49.274;8.708;2022-12-18T14:11:49;0.60;92.40
46340;DHT22;47273;49.274;8.708;2022-12-18T14:14:17;0.50;92.50
46340;DHT22;47273;49.274;8.708;2022-12-18T14:16:43;0.50;92.50
46340;DHT22;47273;49.274;8.708;2022-12-18T14:19:15;0.50;92.60
46340;DHT22;47273;49.274;8.708;2022-12-18T14:21:49;0.40;92.60
46340;DHT22;47273;49.274;8.708;2022-12-18T14:24:21;0.30;92.60
46340;DHT22;47273;49.274;8.708;2022-12-18T14:26:48;0.30;92.80
46340;DHT22;47273;49.274;8.708;2022-12-18T14:29:28;0.30;92.80
46340;DHT22;47273;49.274;8.708;2022-12-18T14:32:15;0.30;92.80
46340;DHT22;47273;49.274;8.708;2022-12-18T14:34:52;0.30;92.90
46340;DHT22;47273;49.274;8.708;2022-12-18T14:37:24;0.20;92.80
46340;DHT22;47273;49.274;8.708;2022-12-18T14:39:58;0.20;92.90
46340;DHT22;47273;49.274;8.708;2022-12-18T14:42:25;0.10;92.90
46340;DHT22;47273;49.274;8.708;2022-12-18T14:47:58;0.10;93.00
46340;DHT22;47273;49.274;8.708;2022-12-18T14:50:24;0.00;93.10
46340;DHT22;47273;49.274;8.708;2022-12-18T14:52:50;0.00;93.20
46340;DHT22;47273;49.274;8.708;2022-12-18T14:55:19;-0.10;93.30
46340;DHT22;47273;49.274;8.708;2022-12-18T14:57:50;-0.10;93.30
46340;DHT22;47273;49.274;8.708;2022-12-18T15:00:19;-0.20;93.50
46340;DHT22;47273;49.274;8.708;2022-12-18T15:02:53;-0.20;93.50
46340;DHT22;47273;49.274;8.708;2022-12-18T15:05:28;-0.20;93.50
46340;DHT22;47273;49.274;8.708;2022-12-18T15:07:56;-0.30;93.60
46340;DHT22;47273;49.274;8.708;2022-12-18T15:10:24;-0.30;93.60
46340;DHT22;47273;49.274;8.708;2022-12-18T15:20:50;-0.40;93.70
46340;DHT22;47273;49.274;8.708;2022-12-18T15:26:10;-0.50;94.00
46340;DHT22;47273;49.274;8.708;2022-12-18T15:33:40;-0.60;94.10
46340;DHT22;47273;49.274;8.708;2022-12-18T15:36:15;-0.60;94.20
46340;DHT22;47273;49.274;8.708;2022-12-18T15:38:41;-0.60;94.30
46340;DHT22;47273;49.274;8.708;2022-12-18T15:41:14;-0.60;94.30
46340;DHT22;47273;49.274;8.708;2022-12-18T15:43:40;-0.70;94.30
46340;DHT22;47273;49.274;8.708;2022-12-18T15:46:12;-0.70;94.40
46340;DHT22;47273;49.274;8.708;2022-12-18T15:48:44;-0.70;94.40
46340;DHT22;47273;49.274;8.708;2022-12-18T15:51:24;-0.70;94.40
46340;DHT22;47273;49.274;8.708;2022-12-18T15:53:54;-0.70;94.50
46340;DHT22;47273;49.274;8.708;2022-12-18T15:56:20;-0.70;94.50
46340;DHT22;47273;49.274;8.708;2022-12-18T15:59:12;-0.70;94.60
46340;DHT22;47273;49.274;8.708;2022-12-18T16:01:39;-0.80;94.60
46340;DHT22;47273;49.274;8.708;2022-12-18T16:04:05;-0.80;94.80
46340;DHT22;47273;49.274;8.708;2022-12-18T16:06:31;-0.80;94.90
46340;DHT22;47273;49.274;8.708;2022-12-18T16:08:56;-0.80;94.80
46340;DHT22;47273;49.274;8.708;2022-12-18T16:11:26;-0.80;95.00
46340;DHT22;47273;49.274;8.708;2022-12-18T16:14:25;-0.90;95.20
46340;DHT22;47273;49.274;8.708;2022-12-18T16:17:05;-0.90;95.40
46340;DHT22;47273;49.274;8.708;2022-12-18T16:19:31;-0.90;95.40
46340;DHT22;47273;49.274;8.708;2022-12-18T16:21:58;-0.90;95.40
46340;DHT22;47273;49.274;8.708;2022-12-18T16:24:26;-0.90;95.40
46340;DHT22;47273;49.274;8.708;2022-12-18T16:26:53;-0.90;95.40
46340;DHT22;47273;49.274;8.708;2022-12-18T16:29:19;-0.90;95.40
46340;DHT22;47273;49.274;8.708;2022-12-18T16:31:50;-0.90;95.70
46340;DHT22;47273;49.274;8.708;2022-12-18T16:34:20;-0.90;95.70
46340;DHT22;47273;49.274;8.708;2022-12-18T16:36:49;-0.90;95.80
46340;DHT22;47273;49.274;8.708;2022-12-18T16:39:15;-0.90;95.70
46340;DHT22;47273;49.274;8.708;2022-12-18T16:41:41;-0.90;95.80
46340;DHT22;47273;49.274;8.708;2022-12-18T16:44:07;-0.90;96.00
46340;DHT22;47273;49.274;8.708;2022-12-18T16:46:33;-0.90;96.00
46340;DHT22;47273;49.274;8.708;2022-12-18T16:48:59;-0.90;96.10
46340;DHT22;47273;49.274;8.708;2022-12-18T16:51:26;-0.90;96.10
46340;DHT22;47273;49.274;8.708;2022-12-18T16:53:54;-0.90;96.20
46340;DHT22;47273;49.274;8.708;2022-12-18T16:56:20;-0.90;96.10
46340;DHT22;47273;49.274;8.708;2022-12-18T16:58:57;-0.90;96.10
46340;DHT22;47273;49.274;8.708;2022-12-18T17:01:24;-0.90;96.00
46340;DHT22;47273;49.274;8.708;2022-12-18T17:03:54;-0.80;96.00
46340;DHT22;47273;49.274;8.708;2022-12-18T17:06:24;-0.80;96.00
46340;DHT22;47273;49.274;8.708;2022-12-18T17:09:01;-0.80;96.20
46340;DHT22;47273;49.274;8.708;2022-12-18T17:11:29;-0.90;96.30
46340;DHT22;47273;49.274;8.708;2022-12-18T17:13:56;-0.90;96.40
46340;DHT22;47273;49.274;8.708;2022-12-18T17:16:23;-0.90;96.40
46340;DHT22;47273;49.274;8.708;2022-12-18T17:18:49;-0.90;96.40
46340;DHT22;47273;49.274;8.708;2022-12-18T17:21:15;-0.90;96.40
46340;DHT22;47273;49.274;8.708;2022-12-18T17:23:42;-0.90;96.40
46340;DHT22;47273;49.274;8.708;2022-12-18T17:26:09;-0.90;96.50
46340;DHT22;47273;49.274;8.708;2022-12-18T17:28:36;-0.90;96.70
46340;DHT22;47273;49.274;8.708;2022-12-18T17:31:10;-0.90;96.70
46340;DHT22;47273;49.274;8.708;2022-12-18T17:33:36;-0.90;96.80
46340;DHT22;47273;49.274;8.708;2022-12-18T17:36:01;-0.90;96.80
46340;DHT22;47273;49.274;8.708;2022-12-18T17:38:27;-0.90;96.80
46340;DHT22;47273;49.274;8.708;2022-12-18T17:40:53;-0.90;96.80
46340;DHT22;47273;49.274;8.708;2022-12-18T17:43:18;-1.00;96.90
46340;DHT22;47273;49.274;8.708;2022-12-18T17:45:44;-0.90;96.90
46340;DHT22;47273;49.274;8.708;2022-12-18T17:48:09;-1.00;97.00
46340;DHT22;47273;49.274;8.708;2022-12-18T17:50:35;-1.00;97.00
46340;DHT22;47273;49.274;8.708;2022-12-18T17:53:01;-1.00;97.00
46340;DHT22;47273;49.274;8.708;2022-12-18T17:55:27;-1.00;97.00
46340;DHT22;47273;49.274;8.708;2022-12-18T17:57:53;-1.00;97.10
46340;DHT22;47273;49.274;8.708;2022-12-18T18:00:19;-1.00;97.00
46340;DHT22;47273;49.274;8.708;2022-12-18T18:02:45;-1.00;97.00
46340;DHT22;47273;49.274;8.708;2022-12-18T18:05:11;-1.00;97.00
46340;DHT22;47273;49.274;8.708;2022-12-18T18:07:38;-1.00;96.90
46340;DHT22;47273;49.274;8.708;2022-12-18T18:10:05;-0.90;96.90
46340;DHT22;47273;49.274;8.708;2022-12-18T18:12:31;-1.00;97.10
46340;DHT22;47273;49.274;8.708;2022-12-18T18:15:15;-1.00;97.10
46340;DHT22;47273;49.274;8.708;2022-12-18T18:17:41;-1.00;97.20
46340;DHT22;47273;49.274;8.708;2022-12-18T18:20:07;-1.00;97.20
46340;DHT22;47273;49.274;8.708;2022-12-18T18:22:33;-0.90;97.40
46340;DHT22;47273;49.274;8.708;2022-12-18T18:24:58;-0.90;97.20
46340;DHT22;47273;49.274;8.708;2022-12-18T18:27:24;-0.90;97.20
46340;DHT22;47273;49.274;8.708;2022-12-18T18:29:50;-0.90;97.10
46340;DHT22;47273;49.274;8.708;2022-12-18T18:32:16;-0.90;97.20
46340;DHT22;47273;49.274;8.708;2022-12-18T18:34:41;-0.90;97.10
46340;DHT22;47273;49.274;8.708;2022-12-18T18:37:08;-0.90;97.20
46340;DHT22;47273;49.274;8.708;2022-12-18T18:39:35;-0.90;97.20
46340;DHT22;47273;49.274;8.708;2022-12-18T18:42:01;-0.90;97.20
46340;DHT22;47273;49.274;8.708;2022-12-18T18:44:27;-0.90;97.10
46340;DHT22;47273;49.274;8.708;2022-12-18T18:46:56;-0.90;97.20
46340;DHT22;47273;49.274;8.708;2022-12-18T18:49:22;-0.90;97.20
46340;DHT22;47273;49.274;8.708;2022-12-18T18:51:51;-0.90;97.10
46340;DHT22;47273;49.274;8.708;2022-12-18T18:54:17;-0.80;97.10
46340;DHT22;47273;49.274;8.708;2022-12-18T18:56:43;-0.90;97.20
46340;DHT22;47273;49.274;8.708;2022-12-18T18:59:09;-0.90;97.20
46340;DHT22;47273;49.274;8.708;2022-12-18T19:01:34;-0.90;97.20
46340;DHT22;47273;49.274;8.708;2022-12-18T19:04:00;-0.90;97.40
46340;DHT22;47273;49.274;8.708;2022-12-18T19:06:27;-0.90;97.50
46340;DHT22;47273;49.274;8.708;2022-12-18T19:08:54;-0.90;97.50
46340;DHT22;47273;49.274;8.708;2022-12-18T19:11:20;-0.90;97.50
46340;DHT22;47273;49.274;8.708;2022-12-18T19:14:07;-0.90;97.40
46340;DHT22;47273;49.274;8.708;2022-12-18T19:16:33;-0.80;97.40
46340;DHT22;47273;49.274;8.708;2022-12-18T19:18:59;-0.90;97.30
46340;DHT22;47273;49.274;8.708;2022-12-18T19:21:25;-0.80;97.60
46340;DHT22;47273;49.274;8.708;2022-12-18T19:23:51;-0.90;97.30
46340;DHT22;47273;49.274;8.708;2022-12-18T19:26:17;-0.80;97.40
46340;DHT22;47273;49.274;8.708;2022-12-18T19:28:44;-0.80;97.30
46340;DHT22;47273;49.274;8.708;2022-12-18T19:31:12;-0.90;97.40
46340;DHT22;47273;49.274;8.708;2022-12-18T19:33:39;-0.80;97.40
46340;DHT22;47273;49.274;8.708;2022-12-18T19:38:39;-0.80;97.40
46340;DHT22;47273;49.274;8.708;2022-12-18T19:41:06;-0.90;97.40
46340;DHT22;47273;49.274;8.708;2022-12-18T19:43:32;-0.80;97.40
46340;DHT22;47273;49.274;8.708;2022-12-18T19:46:01;-0.80;97.40
46340;DHT22;47273;49.274;8.708;2022-12-18T19:48:27;-0.80;97.40
46340;DHT22;47273;49.274;8.708;2022-12-18T19:50:52;-0.80;97.40
46340;DHT22;47273;49.274;8.708;2022-12-18T19:53:18;-0.80;97.30
46340;DHT22;47273;49.274;8.708;2022-12-18T19:55:44;-0.80;97.30
46340;DHT22;47273;49.274;8.708;2022-12-18T19:58:10;-0.80;97.40
46340;DHT22;47273;49.274;8.708;2022-12-18T20:00:35;-0.80;97.50
46340;DHT22;47273;49.274;8.708;2022-12-18T20:03:02;-0.80;97.50
46340;DHT22;47273;49.274;8.708;2022-12-18T20:05:27;-0.80;97.50
46340;DHT22;47273;49.274;8.708;2022-12-18T20:07:53;-0.80;97.50
46340;DHT22;47273;49.274;8.708;2022-12-18T20:10:19;-0.80;97.40
46340;DHT22;47273;49.274;8.708;2022-12-18T20:12:45;-0.80;97.50
46340;DHT22;47273;49.274;8.708;2022-12-18T20:15:11;-0.80;97.50
46340;DHT22;47273;49.274;8.708;2022-12-18T20:17:37;-0.80;97.40
46340;DHT22;47273;49.274;8.708;2022-12-18T20:20:03;-0.80;97.40
46340;DHT22;47273;49.274;8.708;2022-12-18T20:22:29;-0.80;97.50
46340;DHT22;47273;49.274;8.708;2022-12-18T20:24:55;-0.80;97.40
46340;DHT22;47273;49.274;8.708;2022-12-18T20:27:20;-0.80;97.40
46340;DHT22;47273;49.274;8.708;2022-12-18T20:29:46;-0.80;97.50
46340;DHT22;47273;49.274;8.708;2022-12-18T20:32:13;-0.80;97.50
46340;DHT22;47273;49.274;8.708;2022-12-18T20:34:39;-0.80;97.60
46340;DHT22;47273;49.274;8.708;2022-12-18T20:37:04;-0.80;97.50
46340;DHT22;47273;49.274;8.708;2022-12-18T20:39:30;-0.80;97.50
46340;DHT22;47273;49.274;8.708;2022-12-18T20:41:56;-0.80;97.40
46340;DHT22;47273;49.274;8.708;2022-12-18T20:44:22;-0.70;97.40
46340;DHT22;47273;49.274;8.708;2022-12-18T20:46:48;-0.80;97.40
46340;DHT22;47273;49.274;8.708;2022-12-18T20:49:39;-0.80;97.30
46340;DHT22;47273;49.274;8.708;2022-12-18T20:52:05;-0.70;97.40
46340;DHT22;47273;49.274;8.708;2022-12-18T20:54:31;-0.80;97.30
46340;DHT22;47273;49.274;8.708;2022-12-18T20:56:57;-0.80;97.30
46340;DHT22;47273;49.274;8.708;2022-12-18T20:59:23;-0.80;97.30
46340;DHT22;47273;49.274;8.708;2022-12-18T21:01:50;-0.70;97.40
46340;DHT22;47273;49.274;8.708;2022-12-18T21:04:19;-0.80;97.30
46340;DHT22;47273;49.274;8.708;2022-12-18T21:06:47;-0.80;97.40
46340;DHT22;47273;49.274;8.708;2022-12-18T21:09:13;-0.70;97.30
46340;DHT22;47273;49.274;8.708;2022-12-18T21:11:38;-0.80;97.30
46340;DHT22;47273;49.274;8.708;2022-12-18T21:14:25;-0.80;97.30
46340;DHT22;47273;49.274;8.708;2022-12-18T21:16:51;-0.80;97.30
46340;DHT22;47273;49.274;8.708;2022-12-18T21:19:20;-0.80;97.30
46340;DHT22;47273;49.274;8.708;2022-12-18T21:21:47;-0.80;97.40
46340;DHT22;47273;49.274;8.708;2022-12-18T21:24:13;-0.80;97.40
46340;DHT22;47273;49.274;8.708;2022-12-18T21:26:39;-0.80;97.40
46340;DHT22;47273;49.274;8.708;2022-12-18T21:29:07;-0.80;97.40
46340;DHT22;47273;49.274;8.708;2022-12-18T21:31:35;-0.80;97.50
46340;DHT22;47273;49.274;8.708;2022-12-18T21:34:03;-0.80;97.50
46340;DHT22;47273;49.274;8.708;2022-12-18T21:36:30;-0.80;97.50
46340;DHT22;47273;49.274;8.708;2022-12-18T21:38:57;-0.80;97.50
46340;DHT22;47273;49.274;8.708;2022-12-18T21:41:23;-0.80;97.50
46340;DHT22;47273;49.274;8.708;2022-12-18T21:44:10;-0.80;97.50
46340;DHT22;47273;49.274;8.708;2022-12-18T21:46:41;-0.80;97.60
46340;DHT22;47273;49.274;8.708;2022-12-18T21:49:08;-0.80;97.50
46340;DHT22;47273;49.274;8.708;2022-12-18T21:51:34;-0.80;97.60
46340;DHT22;47273;49.274;8.708;2022-12-18T21:54:01;-0.80;97.60
46340;DHT22;47273;49.274;8.708;2022-12-18T21:59:19;-0.80;97.40
46340;DHT22;47273;49.274;8.708;2022-12-18T22:01:48;-0.80;97.50
46340;DHT22;47273;49.274;8.708;2022-12-18T22:04:14;-0.80;97.50
46340;DHT22;47273;49.274;8.708;2022-12-18T22:06:40;-0.80;97.50
46340;DHT22;47273;49.274;8.708;2022-12-18T22:09:09;-0.70;97.50
46340;DHT22;47273;49.274;8.708;2022-12-18T22:11:35;-0.70;97.50
46340;DHT22;47273;49.274;8.708;2022-12-18T22:14:01;-0.70;97.40